Terminal Aerodrome Forecast
Issued by NWS Atlanta, GA

Home | Current Version | Previous Version | Text Only | Print | Product List | Glossary On
Versions: 1 2 3 4 5 6 7 8 9 10 11 12 13
594
FTUS42 KFFC 222333
TAFCSG
TAF
KCSG 222333Z 2300/2324 35004KT P6SM BKN250
     FM230600 03004KT P6SM SCT040
     FM230800 06006KT P6SM BKN035
     FM231000 06007KT P6SM OVC025
     FM231500 06006KT P6SM BKN035=

USA.gov is the U.S. government's official web portal to all federal, state and local government web resources and services.